createdAt,value
2023-03-18T00:00:15.482Z,10.70
2023-03-18T00:02:42.372Z,10.80
2023-03-18T00:05:10.581Z,10.70
2023-03-18T00:10:11.926Z,10.70
2023-03-18T00:12:40.378Z,10.70
2023-03-18T00:15:09.567Z,10.70
2023-03-18T00:17:37.771Z,10.60
2023-03-18T00:20:06.806Z,9.80
2023-03-18T00:22:35.917Z,10.60
2023-03-18T00:25:05.080Z,10.70
2023-03-18T00:27:31.898Z,10.70
2023-03-18T00:29:58.951Z,10.80
2023-03-18T00:32:27.705Z,10.70
2023-03-18T00:34:56.445Z,10.70
2023-03-18T00:37:30.418Z,10.80
2023-03-18T00:40:06.123Z,10.80
2023-03-18T00:42:38.914Z,10.80
2023-03-18T00:45:10.980Z,10.70
2023-03-18T00:47:38.473Z,10.70
2023-03-18T00:50:07.352Z,10.70
2023-03-18T00:52:34.726Z,10.70
2023-03-18T00:55:01.985Z,10.70
2023-03-18T00:57:29.832Z,10.70
2023-03-18T00:59:57.198Z,10.70
2023-03-18T01:02:24.836Z,10.80
2023-03-18T01:04:52.161Z,10.80
2023-03-18T01:07:19.503Z,10.80
2023-03-18T01:09:46.654Z,10.80
2023-03-18T01:12:13.756Z,10.90
2023-03-18T01:14:41.136Z,10.80
2023-03-18T01:17:09.501Z,10.80
2023-03-18T01:19:36.581Z,10.80
2023-03-18T01:22:04.653Z,10.80
2023-03-18T01:24:31.430Z,10.80
2023-03-18T01:26:58.196Z,10.90
2023-03-18T01:29:25.205Z,10.80
2023-03-18T01:31:52.156Z,10.80
2023-03-18T01:34:19.141Z,10.80
2023-03-18T01:36:46.481Z,10.80
2023-03-18T01:39:14.384Z,10.80
2023-03-18T01:41:41.330Z,10.80
2023-03-18T01:44:19.543Z,10.70
2023-03-18T01:46:48.375Z,10.70
2023-03-18T01:49:25.900Z,10.70
2023-03-18T01:52:09.513Z,10.70
2023-03-18T01:54:49.461Z,10.70
2023-03-18T01:57:17.810Z,10.70
2023-03-18T01:59:47.577Z,10.70
2023-03-18T02:02:16.343Z,10.70
2023-03-18T02:04:50.345Z,10.70
2023-03-18T02:07:20.548Z,10.70
2023-03-18T02:09:48.881Z,10.70
2023-03-18T02:12:22.062Z,10.70
2023-03-18T02:14:50.751Z,10.70
2023-03-18T02:17:24.561Z,10.60
2023-03-18T02:20:12.563Z,10.50
2023-03-18T02:22:47.608Z,10.50
2023-03-18T02:25:17.384Z,10.40
2023-03-18T02:27:48.486Z,10.30
2023-03-18T02:30:22.705Z,10.30
2023-03-18T02:32:51.604Z,10.30
2023-03-18T02:35:18.572Z,10.30
2023-03-18T02:37:45.397Z,10.20
2023-03-18T02:40:24.503Z,10.20
2023-03-18T02:42:51.453Z,10.20
2023-03-18T02:45:30.475Z,10.30
2023-03-18T02:47:59.209Z,10.30
2023-03-18T02:50:26.264Z,10.30
2023-03-18T02:52:52.960Z,10.20
2023-03-18T02:55:19.795Z,10.20
2023-03-18T02:57:46.803Z,10.10
2023-03-18T03:00:14.323Z,10.00
2023-03-18T03:02:41.211Z,10.10
2023-03-18T03:05:09.254Z,10.00
2023-03-18T03:10:05.796Z,9.80
2023-03-18T03:12:32.704Z,9.80
2023-03-18T03:14:59.527Z,9.80
2023-03-18T03:17:26.223Z,9.60
2023-03-18T03:19:52.916Z,9.60
2023-03-18T03:22:19.702Z,9.60
2023-03-18T03:24:46.383Z,9.60
2023-03-18T03:27:13.073Z,9.60
2023-03-18T03:29:39.863Z,9.60
2023-03-18T03:32:06.973Z,9.50
2023-03-18T03:34:34.997Z,9.50
2023-03-18T03:37:01.779Z,9.50
2023-03-18T03:39:28.579Z,9.50
2023-03-18T03:41:55.377Z,9.40
2023-03-18T03:44:22.057Z,9.30
2023-03-18T03:46:48.879Z,9.30
2023-03-18T03:49:15.720Z,9.30
2023-03-18T03:51:42.511Z,9.30
2023-03-18T03:54:09.537Z,9.20
2023-03-18T03:56:36.450Z,9.20
2023-03-18T03:59:04.812Z,9.20
2023-03-18T04:01:32.571Z,9.20
2023-03-18T04:04:00.766Z,9.20
2023-03-18T04:06:27.470Z,9.10
2023-03-18T04:08:54.171Z,9.10
2023-03-18T04:11:21.216Z,9.00
2023-03-18T04:13:48.844Z,9.00
2023-03-18T04:16:17.120Z,9.00
2023-03-18T04:18:43.883Z,9.00
2023-03-18T04:21:11.501Z,9.00
2023-03-18T04:23:38.527Z,9.00
2023-03-18T04:26:05.393Z,9.00
2023-03-18T04:28:32.921Z,8.90
2023-03-18T04:30:59.882Z,8.90
2023-03-18T04:33:27.869Z,8.90
2023-03-18T04:35:54.633Z,8.90
2023-03-18T04:38:21.366Z,8.90
2023-03-18T04:40:48.057Z,8.90
2023-03-18T04:43:15.301Z,8.80
2023-03-18T04:45:42.046Z,8.80
2023-03-18T04:48:08.834Z,8.80
2023-03-18T04:50:35.583Z,8.80
2023-03-18T04:53:03.416Z,8.70
2023-03-18T04:55:30.693Z,8.70
2023-03-18T04:57:57.648Z,8.70
2023-03-18T05:00:24.567Z,8.70
2023-03-18T05:02:51.455Z,8.60
2023-03-18T05:05:18.408Z,8.60
2023-03-18T05:07:45.127Z,8.50
2023-03-18T05:10:12.537Z,8.50
2023-03-18T05:12:39.297Z,8.50
2023-03-18T05:15:06.943Z,8.50
2023-03-18T05:17:33.642Z,8.50
2023-03-18T05:20:00.524Z,8.50
2023-03-18T05:22:27.481Z,8.40
2023-03-18T05:24:54.165Z,8.30
2023-03-18T05:27:21.016Z,8.30
2023-03-18T05:29:48.237Z,8.30
2023-03-18T05:32:15.015Z,8.20
2023-03-18T05:34:42.186Z,8.20
2023-03-18T05:37:10.943Z,8.20
2023-03-18T05:39:38.127Z,8.10
2023-03-18T05:42:06.375Z,8.10
2023-03-18T05:44:33.946Z,8.10
2023-03-18T05:47:01.603Z,8.10
2023-03-18T05:49:28.712Z,8.10
2023-03-18T05:51:55.748Z,8.10
2023-03-18T05:54:22.621Z,8.20
2023-03-18T05:56:52.346Z,8.20
2023-03-18T05:59:19.953Z,8.20
2023-03-18T06:01:46.763Z,8.20
2023-03-18T06:04:13.459Z,8.20
2023-03-18T06:06:41.033Z,8.20
2023-03-18T06:09:10.684Z,8.20
2023-03-18T06:11:38.120Z,8.30
2023-03-18T06:14:06.349Z,8.30
2023-03-18T06:16:33.933Z,8.20
2023-03-18T06:19:01.270Z,8.30
2023-03-18T06:21:28.537Z,8.30
2023-03-18T06:23:55.591Z,8.30
2023-03-18T06:26:22.308Z,8.40
2023-03-18T06:28:49.127Z,8.50
2023-03-18T06:31:15.877Z,8.50
2023-03-18T06:33:42.814Z,8.60
2023-03-18T06:36:10.659Z,8.60
2023-03-18T06:38:38.116Z,8.60
2023-03-18T06:41:04.944Z,8.60
2023-03-18T06:43:31.819Z,8.60
2023-03-18T06:45:59.487Z,8.70
2023-03-18T06:48:26.463Z,8.80
2023-03-18T06:50:54.358Z,8.80
2023-03-18T06:53:21.174Z,8.80
2023-03-18T06:55:48.457Z,8.90
2023-03-18T06:58:15.555Z,9.10
2023-03-18T07:00:45.246Z,9.10
2023-03-18T07:03:13.306Z,9.10
2023-03-18T07:05:42.117Z,9.20
2023-03-18T07:08:09.840Z,9.30
2023-03-18T07:10:36.550Z,9.40
2023-03-18T07:13:03.344Z,9.50
2023-03-18T07:15:30.413Z,9.60
2023-03-18T07:17:57.172Z,9.70
2023-03-18T07:20:24.060Z,9.90
2023-03-18T07:22:51.545Z,10.00
2023-03-18T07:25:18.337Z,10.10
2023-03-18T07:27:45.559Z,10.20
2023-03-18T07:30:13.626Z,10.20
2023-03-18T07:32:40.341Z,10.30
2023-03-18T07:35:07.951Z,10.40
2023-03-18T07:37:35.963Z,10.50
2023-03-18T07:40:03.555Z,10.60
2023-03-18T07:42:30.237Z,10.70
2023-03-18T07:44:56.902Z,10.90
2023-03-18T07:47:24.988Z,11.00
2023-03-18T07:49:54.716Z,11.10
2023-03-18T07:52:21.431Z,11.20
2023-03-18T07:54:48.103Z,11.20
2023-03-18T07:57:14.814Z,11.30
2023-03-18T07:59:41.590Z,11.40
2023-03-18T08:02:11.051Z,11.40
2023-03-18T08:04:37.733Z,11.50
2023-03-18T08:07:04.559Z,11.60
2023-03-18T08:09:32.371Z,11.70
2023-03-18T08:11:59.052Z,11.80
2023-03-18T08:14:25.953Z,11.90
2023-03-18T08:16:52.663Z,12.00
2023-03-18T08:19:19.318Z,12.10
2023-03-18T08:21:46.004Z,12.20
2023-03-18T08:24:12.673Z,12.30
2023-03-18T08:26:39.973Z,12.40
2023-03-18T08:29:06.734Z,12.50
2023-03-18T08:31:33.491Z,12.50
2023-03-18T08:34:00.741Z,12.50
2023-03-18T08:36:28.661Z,12.70
2023-03-18T08:38:56.495Z,12.70
2023-03-18T08:41:25.600Z,12.90
2023-03-18T08:43:53.185Z,13.00
2023-03-18T08:46:20.325Z,13.10
2023-03-18T08:48:47.143Z,13.20
2023-03-18T08:51:14.663Z,13.30
2023-03-18T08:53:41.348Z,13.20
2023-03-18T08:56:08.208Z,13.30
2023-03-18T08:58:36.146Z,13.40
2023-03-18T09:01:05.281Z,13.50
2023-03-18T09:03:32.381Z,13.60
2023-03-18T09:05:59.164Z,13.70
2023-03-18T09:08:25.928Z,13.80
2023-03-18T09:10:53.694Z,13.70
2023-03-18T09:13:21.618Z,13.80
2023-03-18T09:15:48.639Z,13.90
2023-03-18T09:18:16.760Z,14.00
2023-03-18T09:20:45.215Z,14.10
2023-03-18T09:23:13.708Z,14.10
2023-03-18T09:25:44.730Z,14.20
2023-03-18T09:28:11.433Z,14.20
2023-03-18T09:30:39.038Z,14.30
2023-03-18T09:33:09.296Z,14.30
2023-03-18T09:35:36.572Z,14.40
2023-03-18T09:38:04.720Z,14.40
2023-03-18T09:40:36.290Z,14.50
2023-03-18T09:43:38.087Z,14.50
2023-03-18T09:46:10.740Z,14.60
2023-03-18T09:48:49.575Z,14.60
2023-03-18T09:51:30.244Z,14.60
2023-03-18T09:54:02.326Z,14.70
2023-03-18T09:56:35.920Z,14.70
2023-03-18T09:59:30.650Z,14.70
2023-03-18T10:01:58.846Z,14.80
2023-03-18T10:04:25.558Z,14.80
2023-03-18T10:07:01.494Z,14.90
2023-03-18T10:09:38.712Z,15.00
2023-03-18T10:12:33.832Z,15.00
2023-03-18T10:15:22.487Z,15.00
2023-03-18T10:18:12.703Z,15.20
2023-03-18T10:21:04.364Z,15.30
2023-03-18T10:23:56.992Z,15.40
2023-03-18T10:27:01.370Z,15.40
2023-03-18T10:29:40.603Z,15.50
2023-03-18T10:32:22.295Z,15.50
2023-03-18T10:35:09.428Z,15.60
2023-03-18T10:38:13.734Z,15.70
2023-03-18T10:40:41.403Z,15.70
2023-03-18T10:43:17.731Z,15.70
2023-03-18T10:45:46.808Z,15.70
2023-03-18T10:48:35.258Z,15.70
2023-03-18T10:51:18.469Z,15.70
2023-03-18T10:54:03.650Z,15.70
2023-03-18T10:56:31.010Z,15.70
2023-03-18T10:58:58.435Z,15.80
2023-03-18T11:01:28.783Z,15.80
2023-03-18T11:04:06.124Z,16.00
2023-03-18T11:07:01.588Z,16.10
2023-03-18T11:09:39.477Z,16.10
2023-03-18T11:12:14.736Z,16.20
2023-03-18T11:14:42.887Z,16.20
2023-03-18T11:17:26.025Z,16.20
2023-03-18T11:20:08.037Z,16.20
2023-03-18T11:22:37.495Z,16.30
2023-03-18T11:25:16.388Z,16.30
2023-03-18T11:27:45.879Z,16.40
2023-03-18T11:30:32.684Z,16.40
2023-03-18T11:33:31.266Z,16.60
2023-03-18T11:35:59.930Z,16.90
2023-03-18T11:38:28.817Z,17.10
2023-03-18T11:41:17.835Z,17.10
2023-03-18T11:44:01.027Z,17.00
2023-03-18T11:46:37.628Z,17.00
2023-03-18T11:49:05.187Z,17.00
2023-03-18T11:52:00.277Z,17.10
2023-03-18T11:54:35.784Z,17.20
2023-03-18T11:57:11.721Z,17.30
2023-03-18T12:00:04.933Z,17.40
2023-03-18T12:02:56.260Z,17.50
2023-03-18T12:05:35.341Z,17.70
2023-03-18T12:08:24.690Z,18.00
2023-03-18T12:11:28.565Z,18.10
2023-03-18T12:14:01.163Z,18.00
2023-03-18T12:16:43.353Z,18.00
2023-03-18T12:19:55.135Z,17.90
2023-03-18T12:22:40.617Z,17.90
2023-03-18T12:25:07.344Z,17.90
2023-03-18T12:27:48.376Z,17.90
2023-03-18T12:30:25.045Z,18.00
2023-03-18T12:32:54.906Z,18.10
2023-03-18T12:35:43.926Z,18.20
2023-03-18T12:38:32.815Z,18.50
2023-03-18T12:41:29.392Z,18.70
2023-03-18T12:44:06.078Z,19.00
2023-03-18T12:46:42.610Z,18.90
2023-03-18T12:49:41.639Z,19.00
2023-03-18T12:52:30.151Z,18.90
2023-03-18T12:55:02.559Z,18.60
2023-03-18T12:57:36.304Z,18.30
2023-03-18T13:00:10.489Z,18.20
2023-03-18T13:03:00.023Z,17.90
2023-03-18T13:05:36.830Z,17.90
2023-03-18T13:08:18.560Z,17.80
2023-03-18T13:10:52.146Z,17.70
2023-03-18T13:13:20.574Z,17.80
2023-03-18T13:15:51.441Z,17.70
2023-03-18T13:18:27.245Z,17.60
2023-03-18T13:20:58.664Z,17.50
2023-03-18T13:23:37.292Z,17.40
2023-03-18T13:26:31.770Z,17.20
2023-03-18T13:29:37.896Z,17.00
2023-03-18T13:32:35.322Z,17.00
2023-03-18T13:35:13.172Z,17.00
2023-03-18T13:37:44.553Z,17.00
2023-03-18T13:40:17.902Z,17.00
2023-03-18T13:42:46.664Z,17.00
2023-03-18T13:45:16.043Z,16.80
2023-03-18T13:47:44.259Z,16.80
2023-03-18T13:50:19.964Z,16.80
2023-03-18T13:52:48.473Z,16.70
2023-03-18T13:55:27.509Z,16.70
2023-03-18T13:57:57.636Z,16.60
2023-03-18T14:00:33.257Z,16.50
2023-03-18T14:03:21.937Z,16.40
2023-03-18T14:06:08.483Z,16.30
2023-03-18T14:08:38.191Z,16.30
2023-03-18T14:11:17.147Z,16.20
2023-03-18T14:13:45.326Z,16.20
2023-03-18T14:16:14.831Z,16.10
2023-03-18T14:18:43.105Z,16.10
2023-03-18T14:21:28.450Z,15.90
2023-03-18T14:24:25.678Z,15.90
2023-03-18T14:26:58.103Z,15.70
2023-03-18T14:29:30.930Z,15.60
2023-03-18T14:31:59.792Z,15.60
2023-03-18T14:34:32.282Z,15.60
2023-03-18T14:36:58.890Z,15.60
2023-03-18T14:39:42.818Z,15.60
2023-03-18T14:42:36.028Z,15.70
2023-03-18T14:45:06.841Z,15.70
2023-03-18T14:47:39.419Z,15.80
2023-03-18T14:50:20.289Z,16.00
2023-03-18T14:53:02.094Z,16.30
2023-03-18T14:55:35.506Z,16.60
2023-03-18T14:58:03.016Z,16.80
2023-03-18T15:00:36.458Z,17.00
2023-03-18T15:03:14.394Z,17.10
2023-03-18T15:05:43.088Z,17.10
2023-03-18T15:08:17.868Z,17.20
2023-03-18T15:10:51.614Z,17.20
2023-03-18T15:13:20.345Z,17.20
2023-03-18T15:15:47.095Z,17.20
2023-03-18T15:18:26.520Z,17.10
2023-03-18T15:21:04.113Z,17.10
2023-03-18T15:23:46.497Z,17.10
2023-03-18T15:26:24.700Z,17.10
2023-03-18T15:29:04.287Z,17.00
2023-03-18T15:31:38.563Z,16.90
2023-03-18T15:34:19.606Z,17.10
2023-03-18T15:36:56.494Z,17.20
2023-03-18T15:39:32.644Z,17.10
2023-03-18T15:42:01.397Z,17.10
2023-03-18T15:44:31.532Z,17.00
2023-03-18T15:47:29.214Z,17.00
2023-03-18T15:50:18.977Z,16.90
2023-03-18T15:52:47.393Z,16.90
2023-03-18T15:55:29.397Z,16.80
2023-03-18T15:57:57.846Z,16.70
2023-03-18T16:00:25.291Z,16.60
2023-03-18T16:02:52.262Z,16.60
2023-03-18T16:05:19.356Z,16.60
2023-03-18T16:07:47.933Z,16.70
2023-03-18T16:10:22.799Z,16.90
2023-03-18T16:13:00.598Z,17.00
2023-03-18T16:15:29.675Z,17.00
2023-03-18T16:17:57.818Z,16.90
2023-03-18T16:20:28.251Z,16.90
2023-03-18T16:22:56.593Z,16.60
2023-03-18T16:25:24.684Z,16.50
2023-03-18T16:27:55.201Z,16.30
2023-03-18T16:30:30.979Z,16.20
2023-03-18T16:32:58.391Z,16.00
2023-03-18T16:35:30.782Z,15.90
2023-03-18T16:37:58.842Z,15.80
2023-03-18T16:40:29.080Z,15.70
2023-03-18T16:42:56.569Z,15.60
2023-03-18T16:45:30.844Z,15.60
2023-03-18T16:48:04.900Z,15.60
2023-03-18T16:50:38.767Z,15.60
2023-03-18T16:53:18.128Z,15.50
2023-03-18T16:55:50.802Z,15.50
2023-03-18T16:58:28.746Z,15.40
2023-03-18T17:00:55.758Z,15.40
2023-03-18T17:03:22.725Z,15.30
2023-03-18T17:05:50.834Z,15.30
2023-03-18T17:08:21.761Z,15.20
2023-03-18T17:10:52.188Z,15.10
2023-03-18T17:13:26.279Z,15.00
2023-03-18T17:15:53.532Z,14.90
2023-03-18T17:18:22.761Z,14.80
2023-03-18T17:20:50.626Z,14.60
2023-03-18T17:23:26.657Z,14.60
2023-03-18T17:25:55.356Z,14.50
2023-03-18T17:28:43.818Z,14.40
2023-03-18T17:31:12.307Z,14.30
2023-03-18T17:33:39.154Z,14.10
2023-03-18T17:36:07.537Z,14.00
2023-03-18T17:38:37.249Z,13.90
2023-03-18T17:41:13.626Z,13.90
2023-03-18T17:43:40.318Z,13.80
2023-03-18T17:46:07.085Z,13.80
2023-03-18T17:48:36.815Z,13.70
2023-03-18T17:51:24.557Z,13.40
2023-03-18T17:53:56.962Z,13.40
2023-03-18T17:56:24.490Z,13.50
2023-03-18T17:58:52.502Z,13.30
2023-03-18T18:01:22.418Z,13.30
2023-03-18T18:03:49.524Z,13.20
2023-03-18T18:06:22.251Z,13.10
2023-03-18T18:08:49.785Z,13.00
2023-03-18T18:11:27.990Z,12.90
2023-03-18T18:13:58.024Z,12.90
2023-03-18T18:16:24.788Z,12.80
2023-03-18T18:18:51.594Z,12.70
2023-03-18T18:21:21.617Z,12.70
2023-03-18T18:23:48.606Z,12.60
2023-03-18T18:26:18.123Z,12.60
2023-03-18T18:28:48.078Z,12.50
2023-03-18T18:31:20.342Z,12.40
2023-03-18T18:33:49.727Z,12.40
2023-03-18T18:36:17.876Z,12.30
2023-03-18T18:38:44.991Z,12.20
2023-03-18T18:41:11.749Z,12.20
2023-03-18T18:43:38.789Z,12.20
2023-03-18T18:46:12.873Z,12.10
2023-03-18T18:48:40.837Z,11.90
2023-03-18T18:51:18.832Z,11.90
2023-03-18T18:53:46.716Z,11.90
2023-03-18T18:56:18.586Z,11.90
2023-03-18T18:58:46.370Z,11.80
2023-03-18T19:01:14.893Z,11.70
2023-03-18T19:03:41.783Z,11.60
2023-03-18T19:06:27.426Z,11.60
2023-03-18T19:08:56.567Z,11.60
2023-03-18T19:11:24.775Z,11.50
2023-03-18T19:13:52.082Z,11.60
2023-03-18T19:16:24.689Z,11.50
2023-03-18T19:18:51.417Z,11.50
2023-03-18T19:21:18.083Z,11.60
2023-03-18T19:23:45.818Z,11.60
2023-03-18T19:26:15.919Z,11.60
2023-03-18T19:28:57.333Z,11.60
2023-03-18T19:31:27.211Z,11.60
2023-03-18T19:33:54.475Z,11.60
2023-03-18T19:36:33.252Z,11.60
2023-03-18T19:39:02.125Z,11.70
2023-03-18T19:41:29.828Z,11.70
2023-03-18T19:44:05.658Z,11.60
2023-03-18T19:46:38.937Z,11.60
2023-03-18T19:49:23.085Z,11.60
2023-03-18T19:51:51.008Z,11.60
2023-03-18T19:54:35.445Z,11.60
2023-03-18T19:57:24.374Z,11.70
2023-03-18T19:59:53.037Z,11.70
2023-03-18T20:02:26.303Z,11.60
2023-03-18T20:04:56.301Z,11.60
2023-03-18T20:07:25.572Z,11.60
2023-03-18T20:09:53.069Z,11.60
2023-03-18T20:12:33.721Z,11.50
2023-03-18T20:15:00.440Z,11.50
2023-03-18T20:17:39.180Z,11.50
2023-03-18T20:20:27.478Z,11.40
2023-03-18T20:22:56.490Z,11.40
2023-03-18T20:25:36.177Z,11.40
2023-03-18T20:28:04.683Z,11.40
2023-03-18T20:30:37.783Z,11.30
2023-03-18T20:33:05.287Z,11.30
2023-03-18T20:35:38.770Z,11.30
2023-03-18T20:38:11.798Z,11.30
2023-03-18T20:40:38.768Z,11.30
2023-03-18T20:43:05.466Z,11.40
2023-03-18T20:45:32.356Z,11.40
2023-03-18T20:47:59.173Z,11.40
2023-03-18T20:50:31.136Z,11.40
2023-03-18T20:52:58.723Z,11.40
2023-03-18T20:55:31.304Z,11.40
2023-03-18T20:57:59.760Z,11.40
2023-03-18T21:00:32.993Z,11.40
2023-03-18T21:03:01.973Z,11.40
2023-03-18T21:05:28.666Z,11.40
2023-03-18T21:07:55.858Z,11.40
2023-03-18T21:10:27.244Z,11.50
2023-03-18T21:12:54.292Z,11.50
2023-03-18T21:15:23.350Z,11.50
2023-03-18T21:17:50.372Z,11.50
2023-03-18T21:20:27.592Z,11.50
2023-03-18T21:22:56.089Z,11.50
2023-03-18T21:25:27.858Z,11.50
2023-03-18T21:27:54.952Z,11.50
2023-03-18T21:30:22.717Z,11.60
2023-03-18T21:32:50.933Z,11.50
2023-03-18T21:35:23.771Z,11.60
2023-03-18T21:37:51.721Z,11.50
2023-03-18T21:40:23.769Z,11.60
2023-03-18T21:42:51.564Z,11.50
2023-03-18T21:45:21.367Z,11.50
2023-03-18T21:47:48.101Z,11.50
2023-03-18T21:50:26.094Z,11.50
2023-03-18T21:52:54.208Z,11.50
2023-03-18T21:55:21.639Z,11.50
2023-03-18T21:57:49.341Z,11.60
2023-03-18T22:00:19.851Z,11.60
2023-03-18T22:02:47.473Z,11.60
2023-03-18T22:05:22.920Z,11.70
2023-03-18T22:07:50.951Z,11.70
2023-03-18T22:10:23.220Z,11.60
2023-03-18T22:12:50.738Z,11.60
2023-03-18T22:15:23.322Z,11.60
2023-03-18T22:17:50.313Z,13.40
2023-03-18T22:20:17.654Z,11.50
2023-03-18T22:22:44.426Z,11.50
2023-03-18T22:25:32.849Z,11.50
2023-03-18T22:28:00.471Z,11.50
2023-03-18T22:30:29.383Z,11.50
2023-03-18T22:32:57.184Z,11.50
2023-03-18T22:35:26.301Z,11.50
2023-03-18T22:37:53.338Z,11.50
2023-03-18T22:40:29.366Z,11.60
2023-03-18T22:42:58.373Z,11.60
2023-03-18T22:45:33.639Z,11.60
2023-03-18T22:48:04.295Z,11.60
2023-03-18T22:50:33.240Z,11.70
2023-03-18T22:53:07.262Z,11.70
2023-03-18T22:55:37.024Z,11.80
2023-03-18T22:58:03.788Z,11.80
2023-03-18T23:00:36.416Z,11.80
2023-03-18T23:03:03.335Z,11.80
2023-03-18T23:05:30.005Z,14.20
2023-03-18T23:07:57.095Z,11.80
2023-03-18T23:10:24.613Z,11.70
2023-03-18T23:12:51.283Z,11.80
2023-03-18T23:15:21.570Z,11.90
2023-03-18T23:17:49.259Z,11.90
2023-03-18T23:20:18.109Z,12.00
2023-03-18T23:22:45.823Z,12.00
2023-03-18T23:25:16.470Z,11.90
2023-03-18T23:27:43.458Z,11.80
2023-03-18T23:30:12.439Z,11.90
2023-03-18T23:32:40.424Z,11.80
2023-03-18T23:35:08.855Z,11.80
2023-03-18T23:37:35.752Z,11.70
2023-03-18T23:40:03.051Z,11.60
2023-03-18T23:42:29.752Z,11.60
2023-03-18T23:44:56.496Z,11.70
2023-03-18T23:47:23.307Z,11.70
2023-03-18T23:49:50.278Z,11.60
2023-03-18T23:52:17.214Z,11.60
2023-03-18T23:57:11.887Z,11.60
2023-03-18T23:59:39.194Z,11.70
